Aérodrome :
LOGIN :

S'inscrire | Disclaimer

   EN    FR    IT 

 










Légende :    VFR   VFR Marginal   IFR   IFR Intensif   IFR Très Intensif
Visi : 
Plafond : 
>= 8 km
>= 3000ft
5 à 8 km
1000 à 3000 ft
1500m à 5 km
500 à 1000 ft
800 à 1500m
200 à 500 ft
< 800m
< 200 ft
Symboles :   Orages  Brouillard  Fortes neiges  Fortes précipitations  Vent > 20 kt
SIGMETs :   Divers  Orages  Givrage  Turbulence  Onde Orograph.  Cendres Volcan.







- Altitude de l'aérodrome : 138 ft
- Code IATA : BIO


LEBB - Bilbao

DERNIER METAR :
  • 200330Z AUTO 11003KT 080V140 9999 NCD 03/03 Q1024

METARs EXPIRÉS :
  • 200300Z AUTO VRB02KT 9999 NCD 04/03 Q1024
  • 200230Z AUTO 09004KT 060V140 9999 NCD 04/03 Q1024
  • 200200Z AUTO VRB01KT 9999 NCD 04/03 Q1025
  • 200130Z AUTO VRB01KT 9999 NCD 04/04 Q1024
  • 200100Z AUTO VRB02KT 9999 NCD 04/04 Q1025

TAF TAF LEBB
Valide du 20 à 00h jusqu'au 21 à 00h UTC


192300Z 2000/2024 12004KT CAVOK TX19/2014Z TN01/2007Z
PROB30
TEMPO 2002/2008 3000 BR
Pas de NOTAMs connus pour ce terrain.



MET'MAP, la Météo Aéronautique d'un coup d'oeil ! - Copyright ORBIFLY Décembre 2007 - Disclaimer

ORBIFLY MET'MAP TEAM :

Programmation & Développement : Alexandra Zaïnal
Conception & Développement : Baudouin d'Aumeries
Co-Programmation & Développement : Marc-Olivier Méhu
Soutien technique & logistique : Manuel Goepfert

Contact : metmap@orbifly.com




SOURCES & CREDITS :

   NOAA